Time;durP1;ratioP1;P1;durP2;ratioP2;P2;SDS_P1;SDS_P2;PMS_P1;PMS_P2;Temp;Humidity;BMP_temperature;BMP_pressure;BME280_temperature;BME280_humidity;BME280_pressure;Samples;Min_cycle;Max_cycle;Signal;HPM_P1;HPM_P2
2022/10/12 00:00:44;;;;;;;8.45;4.22;;;8.40;99.90;;;;;;4992127;28;20096;-48
2022/10/12 00:03:11;;;;;;;14.45;3.85;;;8.40;99.90;;;;;;4993245;28;20160;-52
2022/10/12 00:05:37;;;;;;;12.63;3.70;;;8.40;99.90;;;;;;4993145;28;20018;-52
2022/10/12 00:08:02;;;;;;;8.50;3.75;;;8.30;99.90;;;;;;4992402;28;20023;-54
2022/10/12 00:10:28;;;;;;;13.18;3.47;;;8.30;99.90;;;;;;4992904;28;20046;-55
2022/10/12 00:12:54;;;;;;;11.18;4.07;;;8.30;99.90;;;;;;4993007;28;20035;-50
2022/10/12 00:15:19;;;;;;;10.02;3.97;;;8.20;99.90;;;;;;4992894;28;20029;-52
2022/10/12 00:17:45;;;;;;;9.02;3.33;;;8.20;99.90;;;;;;4991827;28;20034;-52
2022/10/12 00:20:10;;;;;;;10.18;4.47;;;8.20;99.90;;;;;;4992891;28;20073;-54
2022/10/12 00:22:36;;;;;;;20.00;4.43;;;8.20;99.90;;;;;;4992666;28;20050;-54
2022/10/12 00:25:02;;;;;;;14.98;4.15;;;8.10;99.90;;;;;;4993229;28;20022;-50
2022/10/12 00:27:27;;;;;;;9.65;3.55;;;8.10;99.90;;;;;;4992723;28;20513;-52
2022/10/12 00:29:53;;;;;;;12.98;4.07;;;8.00;99.90;;;;;;4991662;28;20061;-49
2022/10/12 00:32:19;;;;;;;12.25;3.45;;;8.00;99.90;;;;;;4991253;28;20478;-52
2022/10/12 00:34:44;;;;;;;6.88;3.22;;;8.00;99.90;;;;;;4992861;28;20037;-53
2022/10/12 00:37:10;;;;;;;11.02;3.75;;;8.10;99.90;;;;;;4991390;28;20034;-50
2022/10/12 00:39:35;;;;;;;11.32;4.43;;;8.00;99.90;;;;;;4992248;28;20101;-52
2022/10/12 00:42:01;;;;;;;12.45;4.15;;;8.00;99.90;;;;;;4993129;28;20493;-50
2022/10/12 00:44:47;;;;;;;11.38;3.67;;;8.00;99.90;;;;;;4993590;28;20029;-51
2022/10/12 00:47:18;;;;;;;9.40;3.47;;;8.00;99.90;;;;;;4993063;28;20026;-49
2022/10/12 00:49:48;;;;;;;16.75;4.90;;;7.90;99.90;;;;;;4992595;28;20386;-52
2022/10/12 00:52:16;;;;;;;11.60;4.57;;;7.90;99.90;;;;;;4990983;28;20036;-50
2022/10/12 00:54:45;;;;;;;13.85;4.25;;;7.80;99.90;;;;;;4992504;28;20076;-50
2022/10/12 00:57:14;;;;;;;10.27;4.18;;;7.80;99.90;;;;;;4992541;28;20022;-51
2022/10/12 00:59:46;;;;;;;6.65;3.35;;;7.80;99.90;;;;;;4991848;28;20023;-48
2022/10/12 01:02:12;;;;;;;12.65;3.92;;;7.80;99.90;;;;;;4992068;28;20065;-49
2022/10/12 01:04:39;;;;;;;10.68;3.80;;;7.80;99.90;;;;;;4992399;28;20030;-48
2022/10/12 01:07:04;;;;;;;16.92;4.60;;;7.80;99.90;;;;;;4992425;28;20023;-49
2022/10/12 01:09:30;;;;;;;11.73;5.28;;;7.80;99.90;;;;;;4991011;28;20050;-52
2022/10/12 01:11:57;;;;;;;15.02;4.45;;;7.80;99.90;;;;;;4991917;28;20054;-47
2022/10/12 01:14:22;;;;;;;10.07;3.58;;;7.80;99.90;;;;;;4990908;28;20032;-49
2022/10/12 01:17:17;;;;;;;6.40;3.33;;;7.80;99.90;;;;;;4992132;28;20034;-49
2022/10/12 01:20:19;;;;;;;11.35;5.15;;;7.70;99.90;;;;;;4974619;28;20037;-49
2022/10/12 01:23:16;;;;;;;20.45;4.78;;;7.70;99.90;;;;;;4990821;28;20385;-49
2022/10/12 01:26:06;;;;;;;15.13;4.28;;;7.60;99.90;;;;;;4990868;28;20022;-50
2022/10/12 01:28:54;;;;;;;9.75;4.05;;;7.60;99.90;;;;;;4990798;28;20025;-50
2022/10/12 01:31:39;;;;;;;11.85;4.30;;;7.60;99.90;;;;;;4991841;28;20118;-53
2022/10/12 01:34:20;;;;;;;14.40;3.80;;;7.60;99.90;;;;;;4991558;28;20156;-53
2022/10/12 01:36:55;;;;;;;71.40;38.97;;;7.60;99.90;;;;;;4992149;28;20110;-52
2022/10/12 01:39:26;;;;;;;11.55;5.32;;;7.60;99.90;;;;;;4991918;28;20516;-50
2022/10/12 01:41:57;;;;;;;16.15;3.95;;;7.70;99.90;;;;;;4990487;28;20414;-51
2022/10/12 01:44:24;;;;;;;24.73;6.07;;;7.60;99.90;;;;;;4992144;28;20049;-53
2022/10/12 01:46:54;;;;;;;10.98;4.05;;;7.60;99.90;;;;;;4991491;28;20030;-47
2022/10/12 01:49:33;;;;;;;11.00;4.72;;;7.60;99.90;;;;;;4990462;28;20018;-49
2022/10/12 01:52:22;;;;;;;11.35;4.10;;;7.50;99.90;;;;;;4990401;28;20030;-49
2022/10/12 01:55:11;;;;;;;13.10;4.30;;;7.50;99.90;;;;;;4991844;28;20037;-49
2022/10/12 01:57:48;;;;;;;6.80;3.53;;;7.40;99.90;;;;;;4991752;28;20019;-50
2022/10/12 02:00:15;;;;;;;9.95;3.85;;;7.40;99.90;;;;;;4990221;28;20023;-51
2022/10/12 02:03:00;;;;;;;11.88;3.80;;;7.40;99.90;;;;;;4991493;28;20103;-49
2022/10/12 02:05:42;;;;;;;16.88;3.97;;;7.40;99.90;;;;;;4991817;28;20080;-51
2022/10/12 02:08:19;;;;;;;27.48;4.35;;;7.40;99.90;;;;;;4991596;28;20407;-55
2022/10/12 02:10:48;;;;;;;11.32;4.30;;;7.40;99.90;;;;;;4991584;28;20048;-50
2022/10/12 02:13:16;;;;;;;12.88;4.13;;;7.40;99.90;;;;;;4991336;28;20029;-49
2022/10/12 02:15:43;;;;;;;8.70;4.00;;;7.40;99.90;;;;;;4991482;28;20038;-49
2022/10/12 02:18:13;;;;;;;6.10;3.55;;;7.40;99.90;;;;;;4991996;28;20026;-52
2022/10/12 02:20:39;;;;;;;11.93;3.72;;;7.30;99.90;;;;;;4990077;28;20034;-51
2022/10/12 02:23:07;;;;;;;8.77;3.63;;;7.40;99.90;;;;;;4991354;28;20034;-49
2022/10/12 02:25:33;;;;;;;7.97;3.33;;;7.30;99.90;;;;;;4991501;28;20027;-50
2022/10/12 02:28:07;;;;;;;11.48;3.20;;;7.40;99.90;;;;;;4991359;28;20105;-52
2022/10/12 02:30:54;;;;;;;9.23;4.03;;;7.30;99.90;;;;;;4991603;28;20081;-53
2022/10/12 02:33:56;;;;;;;17.55;3.70;;;7.30;99.90;;;;;;4994723;28;20088;-48
2022/10/12 02:36:40;;;;;;;11.45;3.70;;;7.30;99.90;;;;;;4994234;28;20060;-54
2022/10/12 02:39:15;;;;;;;11.57;4.10;;;7.40;99.90;;;;;;4994722;28;20165;-50
2022/10/12 02:41:46;;;;;;;6.85;3.15;;;7.40;99.90;;;;;;4994878;28;20026;-50
2022/10/12 02:44:16;;;;;;;9.63;3.40;;;7.30;99.90;;;;;;4994779;28;20021;-52
2022/10/12 02:46:43;;;;;;;8.18;4.63;;;7.40;99.90;;;;;;4994247;28;20054;-50
2022/10/12 02:49:11;;;;;;;10.00;3.90;;;7.30;99.90;;;;;;4994551;28;20026;-51
2022/10/12 02:51:40;;;;;;;11.27;3.65;;;7.30;99.90;;;;;;4994679;28;20026;-51
2022/10/12 02:54:06;;;;;;;13.68;4.78;;;7.30;99.90;;;;;;4994592;28;20030;-49
2022/10/12 02:56:31;;;;;;;10.60;3.40;;;7.30;99.90;;;;;;4994299;28;20022;-48
2022/10/12 02:58:57;;;;;;;13.18;3.58;;;7.30;99.90;;;;;;4993201;28;20077;-49
2022/10/12 03:01:23;;;;;;;13.90;3.83;;;7.30;99.90;;;;;;4994455;28;20398;-51
2022/10/12 03:03:48;;;;;;;12.40;4.47;;;7.30;99.90;;;;;;4994112;28;20038;-53
2022/10/12 03:06:14;;;;;;;7.07;3.42;;;7.30;99.90;;;;;;4994681;28;20034;-49
2022/10/12 03:08:40;;;;;;;12.43;4.32;;;7.30;99.90;;;;;;4994122;28;20030;-49
2022/10/12 03:11:07;;;;;;;9.50;3.92;;;7.30;99.90;;;;;;4994279;28;20490;-48
2022/10/12 03:13:33;;;;;;;17.80;4.75;;;7.30;99.90;;;;;;4993992;28;20471;-49
2022/10/12 03:16:07;;;;;;;7.03;3.63;;;7.30;99.90;;;;;;4994415;28;20332;-50
2022/10/12 03:18:33;;;;;;;10.05;3.30;;;7.30;99.90;;;;;;4993848;28;20027;-49
2022/10/12 03:20:58;;;;;;;12.70;3.58;;;7.20;99.90;;;;;;4994281;28;20125;-53
2022/10/12 03:23:24;;;;;;;9.75;4.03;;;7.20;99.90;;;;;;4994280;28;20026;-52
2022/10/12 03:25:50;;;;;;;9.15;3.72;;;7.20;99.90;;;;;;4994210;28;20027;-51
2022/10/12 03:28:16;;;;;;;10.10;4.57;;;7.20;99.90;;;;;;4994230;28;20022;-50
2022/10/12 03:30:42;;;;;;;13.40;4.78;;;7.20;99.90;;;;;;4994731;28;20027;-49
2022/10/12 03:33:08;;;;;;;10.68;4.22;;;7.10;99.90;;;;;;4993493;28;20038;-53
2022/10/12 03:35:34;;;;;;;11.75;3.85;;;7.20;99.90;;;;;;4993918;28;20038;-51
2022/10/12 03:37:59;;;;;;;13.52;4.45;;;7.20;99.90;;;;;;4994181;28;20033;-49
2022/10/12 03:40:25;;;;;;;13.23;4.32;;;7.20;99.90;;;;;;4993565;28;20049;-54
2022/10/12 03:42:50;;;;;;;10.52;3.95;;;7.20;99.90;;;;;;4993070;28;20022;-50
2022/10/12 03:45:16;;;;;;;13.73;5.32;;;7.20;99.90;;;;;;5010983;22;20046;-47
2022/10/12 03:47:41;;;;;;;13.60;6.97;;;7.10;99.90;;;;;;5011993;28;20026;-52
2022/10/12 03:50:07;;;;;;;33.08;13.73;;;7.10;99.90;;;;;;5013001;28;20036;-49
2022/10/12 03:52:33;;;;;;;13.02;4.18;;;7.00;99.90;;;;;;5012777;28;20030;-54
2022/10/12 03:54:58;;;;;;;11.85;4.18;;;7.00;99.90;;;;;;5013032;28;20030;-46
2022/10/12 03:57:24;;;;;;;9.05;4.07;;;6.90;99.90;;;;;;5011802;28;20033;-46
2022/10/12 03:59:49;;;;;;;11.25;4.25;;;6.90;99.90;;;;;;5011563;28;20044;-47
2022/10/12 04:02:15;;;;;;;19.33;4.95;;;6.90;99.90;;;;;;5012798;28;20014;-45
2022/10/12 04:04:40;;;;;;;10.55;4.28;;;6.90;99.90;;;;;;5012792;28;20503;-47
2022/10/12 04:07:06;;;;;;;11.00;4.30;;;6.80;99.90;;;;;;5012831;28;20026;-45
2022/10/12 04:09:32;;;;;;;12.85;4.18;;;6.90;99.90;;;;;;5012737;28;20378;-47
2022/10/12 04:11:57;;;;;;;5.38;3.85;;;6.90;99.90;;;;;;5012473;28;20032;-46
2022/10/12 04:14:23;;;;;;;13.38;4.05;;;6.90;99.90;;;;;;5012812;28;20041;-49
2022/10/12 04:16:48;;;;;;;13.20;3.65;;;6.90;99.90;;;;;;5012767;28;20521;-50
2022/10/12 04:19:14;;;;;;;9.52;3.45;;;6.90;99.90;;;;;;5012571;28;20032;-45
2022/10/12 04:21:40;;;;;;;17.17;4.13;;;6.80;99.90;;;;;;5012591;28;20022;-47
2022/10/12 04:24:06;;;;;;;10.30;3.83;;;6.90;99.90;;;;;;5011044;28;20026;-45
2022/10/12 04:26:31;;;;;;;11.90;4.22;;;6.90;99.90;;;;;;5012507;28;20018;-44
2022/10/12 04:28:57;;;;;;;12.60;4.03;;;6.90;99.90;;;;;;5012360;28;20080;-48
2022/10/12 04:31:22;;;;;;;8.07;3.88;;;6.80;99.90;;;;;;5012504;28;20501;-43
2022/10/12 04:33:48;;;;;;;13.70;3.83;;;6.70;99.90;;;;;;5012190;28;20540;-45
2022/10/12 04:36:13;;;;;;;8.82;4.50;;;6.60;99.90;;;;;;5012245;28;20030;-46
2022/10/12 04:38:39;;;;;;;9.77;3.95;;;6.60;99.90;;;;;;5010907;28;20041;-47
2022/10/12 04:41:04;;;;;;;9.90;4.00;;;6.60;99.90;;;;;;5012340;28;20026;-44
2022/10/12 04:43:30;;;;;;;12.55;4.60;;;6.60;99.90;;;;;;5011991;28;20036;-45
2022/10/12 04:45:57;;;;;;;12.43;4.13;;;6.60;99.90;;;;;;5011632;28;20104;-49
2022/10/12 04:48:23;;;;;;;9.65;4.28;;;6.60;99.90;;;;;;5012196;28;20469;-48
2022/10/12 04:50:49;;;;;;;11.93;4.70;;;6.60;99.90;;;;;;5012443;28;20207;-45
2022/10/12 04:53:15;;;;;;;11.18;4.10;;;6.60;99.90;;;;;;5011954;28;20029;-48
2022/10/12 04:55:40;;;;;;;15.75;4.63;;;6.60;99.90;;;;;;5012106;28;20026;-47
2022/10/12 04:58:06;;;;;;;14.73;4.00;;;6.60;99.90;;;;;;5012293;28;20101;-46
2022/10/12 05:00:31;;;;;;;10.18;4.07;;;6.50;99.90;;;;;;5012992;28;20410;-49
2022/10/12 05:02:57;;;;;;;13.05;5.25;;;6.40;99.90;;;;;;5012106;28;20034;-45
2022/10/12 05:05:22;;;;;;;11.60;4.35;;;6.40;99.90;;;;;;5012332;28;20029;-51
2022/10/12 05:07:48;;;;;;;14.00;4.93;;;6.30;99.90;;;;;;5012973;28;20030;-49
2022/10/12 05:10:13;;;;;;;9.27;4.10;;;6.30;99.90;;;;;;5010537;28;20038;-48
2022/10/12 05:12:39;;;;;;;9.80;4.32;;;6.30;99.90;;;;;;5011605;28;20045;-48
2022/10/12 05:15:05;;;;;;;9.57;4.90;;;6.30;99.90;;;;;;5010471;28;20065;-46
2022/10/12 05:17:30;;;;;;;13.05;4.93;;;6.30;99.90;;;;;;5011863;28;20022;-46
2022/10/12 05:19:56;;;;;;;18.55;5.50;;;6.40;99.90;;;;;;5011760;28;20021;-48
2022/10/12 05:22:21;;;;;;;11.05;3.63;;;6.30;99.90;;;;;;5012026;28;20030;-46
2022/10/12 05:24:47;;;;;;;9.15;4.25;;;6.30;99.90;;;;;;5011952;28;20486;-48
2022/10/12 05:27:12;;;;;;;8.45;4.25;;;6.30;99.90;;;;;;5011936;28;20057;-47
2022/10/12 05:29:38;;;;;;;8.30;4.13;;;6.30;99.90;;;;;;5011586;28;20058;-45
2022/10/12 05:32:04;;;;;;;11.73;4.18;;;6.30;99.90;;;;;;5011259;28;20041;-49
2022/10/12 05:34:29;;;;;;;17.70;4.80;;;6.20;99.90;;;;;;5011631;28;20037;-49
2022/10/12 05:36:57;;;;;;;14.23;4.30;;;6.30;99.90;;;;;;5011426;28;20026;-48
2022/10/12 05:39:22;;;;;;;8.48;4.53;;;6.30;99.90;;;;;;5011145;28;20029;-51
2022/10/12 05:41:48;;;;;;;7.55;4.10;;;6.30;99.90;;;;;;5011438;28;20018;-46
2022/10/12 05:44:13;;;;;;;13.55;4.30;;;6.30;99.90;;;;;;5011543;28;20385;-44
2022/10/12 05:46:39;;;;;;;21.70;5.30;;;6.20;99.90;;;;;;5011247;28;20401;-50
2022/10/12 05:49:05;;;;;;;13.70;4.32;;;6.30;99.90;;;;;;5011562;28;20097;-45
2022/10/12 05:51:31;;;;;;;11.15;4.13;;;6.30;99.90;;;;;;5011165;28;20037;-51
2022/10/12 05:53:56;;;;;;;15.13;4.88;;;6.30;99.90;;;;;;5011171;28;20033;-47
2022/10/12 05:56:22;;;;;;;11.18;4.97;;;6.30;99.90;;;;;;5011293;28;20030;-46
2022/10/12 05:58:47;;;;;;;11.77;4.45;;;6.40;99.90;;;;;;5011088;28;20406;-50
2022/10/12 06:01:13;;;;;;;10.13;4.93;;;6.40;99.90;;;;;;5011203;28;20104;-45
2022/10/12 06:03:39;;;;;;;9.55;4.40;;;6.40;99.90;;;;;;5011158;28;20537;-45
2022/10/12 06:06:05;;;;;;;16.73;4.72;;;6.40;99.90;;;;;;5011105;28;20030;-47
2022/10/12 06:08:32;;;;;;;13.52;4.85;;;6.40;99.90;;;;;;5015011;28;20014;-47
2022/10/12 06:10:58;;;;;;;22.63;7.47;;;6.50;99.90;;;;;;5015324;28;20482;-49
2022/10/12 06:13:24;;;;;;;15.95;4.93;;;6.50;99.90;;;;;;5015328;28;20034;-43
2022/10/12 06:15:50;;;;;;;17.92;4.13;;;6.60;99.90;;;;;;5016110;28;20040;-47
2022/10/12 06:18:16;;;;;;;13.68;4.60;;;6.60;99.90;;;;;;5014781;28;20026;-45
2022/10/12 06:20:48;;;;;;;9.90;3.90;;;6.60;99.90;;;;;;5015113;28;20107;-47
2022/10/12 06:23:14;;;;;;;14.68;4.75;;;6.60;99.90;;;;;;5014612;28;20371;-48
2022/10/12 06:25:40;;;;;;;12.45;5.00;;;6.70;99.90;;;;;;5014781;28;20080;-47
2022/10/12 06:28:05;;;;;;;12.98;4.15;;;6.70;99.90;;;;;;5014648;28;20505;-49
2022/10/12 06:30:31;;;;;;;17.35;6.57;;;6.80;99.90;;;;;;5014758;28;20025;-49
2022/10/12 06:32:56;;;;;;;18.17;4.40;;;7.00;99.90;;;;;;5014245;28;20478;-48
2022/10/12 06:35:22;;;;;;;17.73;5.32;;;7.00;99.90;;;;;;5014510;28;20030;-45
2022/10/12 06:37:51;;;;;;;10.50;4.63;;;7.20;99.90;;;;;;5014555;28;20083;-50
2022/10/12 06:40:18;;;;;;;8.07;4.25;;;7.30;99.90;;;;;;5014868;28;20026;-47
2022/10/12 06:42:44;;;;;;;8.77;4.50;;;7.40;99.90;;;;;;5014189;28;20071;-50
2022/10/12 06:45:10;;;;;;;5.53;4.03;;;7.60;99.90;;;;;;5013860;28;20487;-50
2022/10/12 06:47:35;;;;;;;15.10;4.30;;;7.80;99.90;;;;;;5014916;28;20032;-46
2022/10/12 06:50:01;;;;;;;8.30;3.50;;;8.10;99.90;;;;;;5013270;28;20414;-47
2022/10/12 06:52:27;;;;;;;12.80;4.25;;;8.50;99.90;;;;;;5013076;28;20483;-49
2022/10/12 06:54:52;;;;;;;15.23;3.80;;;8.90;99.90;;;;;;5014370;28;20032;-48
2022/10/12 06:57:18;;;;;;;9.27;3.78;;;9.30;99.90;;;;;;5014730;28;20057;-50
2022/10/12 06:59:43;;;;;;;12.43;4.50;;;9.60;99.90;;;;;;5014057;28;20030;-47
2022/10/12 07:02:10;;;;;;;12.30;4.60;;;9.80;99.90;;;;;;5013981;28;20061;-47
2022/10/12 07:04:35;;;;;;;9.07;3.83;;;10.00;99.90;;;;;;5014262;28;20442;-48
2022/10/12 07:07:01;;;;;;;8.90;4.43;;;10.10;99.90;;;;;;5014426;28;20018;-47
2022/10/12 07:09:27;;;;;;;11.50;4.28;;;10.50;99.90;;;;;;5014211;28;20049;-50
2022/10/12 07:11:53;;;;;;;16.05;4.25;;;10.80;99.90;;;;;;5013910;28;20037;-43
2022/10/12 07:14:18;;;;;;;10.05;3.72;;;11.20;99.90;;;;;;5012680;28;20076;-52
2022/10/12 07:16:44;;;;;;;11.23;3.72;;;11.40;99.90;;;;;;5014016;28;20026;-46
2022/10/12 07:19:09;;;;;;;13.75;4.30;;;11.10;99.90;;;;;;5013705;28;20033;-46
2022/10/12 07:21:35;;;;;;;14.85;4.78;;;10.70;99.90;;;;;;5013864;28;20030;-50
2022/10/12 07:24:00;;;;;;;8.23;3.65;;;10.30;99.90;;;;;;5013682;28;20504;-44
2022/10/12 07:26:26;;;;;;;11.60;4.35;;;10.00;99.90;;;;;;5012970;28;20018;-50
2022/10/12 07:28:51;;;;;;;18.65;5.55;;;9.70;99.90;;;;;;5013689;28;20022;-46
2022/10/12 07:31:17;;;;;;;9.48;3.88;;;9.40;99.90;;;;;;5013870;28;20030;-43
2022/10/12 07:33:42;;;;;;;14.60;5.03;;;9.40;99.90;;;;;;5013376;28;20105;-46
2022/10/12 07:36:08;;;;;;;12.82;4.43;;;9.30;99.90;;;;;;5013437;28;20029;-48
2022/10/12 07:38:34;;;;;;;14.23;3.95;;;9.20;99.90;;;;;;5013575;28;20022;-49
2022/10/12 07:41:01;;;;;;;17.20;4.20;;;9.10;99.90;;;;;;5013392;28;20069;-49
2022/10/12 07:43:28;;;;;;;16.55;4.32;;;9.10;99.90;;;;;;5012998;28;20026;-48
2022/10/12 07:45:53;;;;;;;12.40;4.75;;;9.00;99.90;;;;;;5012597;28;20084;-45
2022/10/12 07:48:19;;;;;;;7.03;4.00;;;9.00;99.90;;;;;;5013426;28;20030;-46
2022/10/12 07:50:45;;;;;;;12.55;5.55;;;9.10;99.90;;;;;;5013628;28;20497;-47
2022/10/12 07:53:11;;;;;;;21.80;4.78;;;9.10;99.90;;;;;;5013369;28;20022;-47
2022/10/12 07:55:36;;;;;;;12.40;4.07;;;9.20;99.90;;;;;;5013679;28;20033;-46
2022/10/12 07:58:03;;;;;;;11.73;4.53;;;9.20;99.90;;;;;;5013111;28;20034;-46
2022/10/12 08:00:30;;;;;;;9.85;5.05;;;9.30;99.90;;;;;;5013094;28;20026;-50
2022/10/12 08:02:56;;;;;;;11.10;4.50;;;9.30;99.90;;;;;;5012852;28;20028;-50
2022/10/12 08:05:22;;;;;;;11.23;4.80;;;9.40;99.90;;;;;;5012837;28;20105;-47
2022/10/12 08:07:50;;;;;;;15.07;5.07;;;9.50;99.90;;;;;;5012977;28;20071;-47
2022/10/12 08:10:16;;;;;;;15.10;5.00;;;9.60;99.90;;;;;;5011571;28;20125;-45
2022/10/12 08:12:43;;;;;;;12.00;5.13;;;9.70;99.90;;;;;;5012609;28;20033;-46
2022/10/12 08:15:09;;;;;;;11.13;4.97;;;9.70;99.90;;;;;;5012921;28;20026;-45
2022/10/12 08:17:35;;;;;;;11.40;5.53;;;9.80;99.90;;;;;;5013033;28;20052;-47
2022/10/12 08:20:00;;;;;;;7.88;4.30;;;9.90;99.90;;;;;;5012495;28;20061;-50
2022/10/12 08:22:26;;;;;;;13.32;4.97;;;9.90;99.90;;;;;;5012443;28;20025;-47
2022/10/12 08:24:51;;;;;;;13.60;7.05;;;9.90;99.90;;;;;;5012595;28;20105;-48
2022/10/12 08:27:17;;;;;;;13.23;4.90;;;10.10;99.90;;;;;;5012644;28;20038;-48
2022/10/12 08:29:43;;;;;;;7.93;4.72;;;10.00;99.90;;;;;;5012005;28;20513;-48
2022/10/12 08:32:08;;;;;;;20.15;6.00;;;10.10;99.90;;;;;;5012359;28;20203;-46
2022/10/12 08:34:34;;;;;;;12.77;5.45;;;10.10;99.90;;;;;;5012594;28;20080;-47
2022/10/12 08:36:59;;;;;;;12.80;5.50;;;10.20;99.90;;;;;;5010950;28;20029;-48
2022/10/12 08:39:25;;;;;;;8.63;5.05;;;10.40;99.90;;;;;;5012081;28;20037;-45
2022/10/12 08:42:12;;;;;;;11.68;5.40;;;10.40;99.90;;;;;;5012224;28;20080;-50
2022/10/12 08:44:55;;;;;;;15.88;4.90;;;10.60;99.90;;;;;;5012247;28;20029;-51
2022/10/12 08:47:42;;;;;;;13.82;4.78;;;10.60;99.90;;;;;;5011669;28;20066;-46
2022/10/12 08:50:28;;;;;;;18.27;5.43;;;10.60;99.90;;;;;;5012223;28;20486;-48
2022/10/12 08:53:18;;;;;;;13.68;5.60;;;10.70;99.90;;;;;;5011778;28;20159;-47
2022/10/12 08:55:45;;;;;;;16.52;5.93;;;10.90;99.90;;;;;;4999079;28;20101;-46
2022/10/12 08:58:19;;;;;;;14.45;5.32;;;11.10;99.90;;;;;;5012105;28;20147;-51
2022/10/12 09:00:56;;;;;;;13.55;5.30;;;11.20;99.90;;;;;;5012102;28;20030;-44
2022/10/12 09:03:32;;;;;;;13.52;5.50;;;11.20;99.90;;;;;;5011815;28;20029;-44
2022/10/12 09:06:15;;;;;;;13.27;6.20;;;11.30;99.90;;;;;;5012029;28;20434;-46
2022/10/12 09:09:05;;;;;;;15.60;5.72;;;11.70;99.90;;;;;;5011992;28;20064;-49
2022/10/12 09:12:04;;;;;;;7.82;4.22;;;12.70;99.90;;;;;;5012029;28;20036;-52
2022/10/12 09:14:33;;;;;;;14.27;4.18;;;13.70;99.90;;;;;;5007280;28;20468;-48
2022/10/12 09:17:00;;;;;;;11.00;4.50;;;14.50;99.90;;;;;;5011955;28;20026;-53
2022/10/12 09:19:31;;;;;;;13.65;4.85;;;15.10;99.90;;;;;;5011658;28;20401;-48
2022/10/12 09:21:57;;;;;;;9.98;4.45;;;15.80;99.90;;;;;;5011553;28;20021;-46
2022/10/12 09:24:29;;;;;;;8.18;4.43;;;16.50;99.90;;;;;;5010481;28;20098;-48
2022/10/12 09:26:59;;;;;;;8.70;4.45;;;17.10;99.90;;;;;;5012052;28;20033;-48
2022/10/12 09:29:28;;;;;;;11.48;4.43;;;17.40;99.90;;;;;;5011769;28;20413;-46
2022/10/12 09:32:19;;;;;;;10.18;3.72;;;18.00;99.90;;;;;;5011634;28;20118;-50
2022/10/12 09:34:46;;;;;;;7.88;4.00;;;18.20;99.90;;;;;;5011993;28;20057;-49
2022/10/12 09:37:19;;;;;;;13.63;4.07;;;18.50;99.30;;;;;;5011935;28;20037;-51
2022/10/12 09:39:45;;;;;;;12.02;4.68;;;18.60;99.00;;;;;;5011686;28;20026;-48
2022/10/12 09:42:11;;;;;;;10.00;3.92;;;18.40;99.40;;;;;;5015436;28;20096;-48
2022/10/12 09:44:45;;;;;;;10.57;4.70;;;17.90;99.90;;;;;;5015969;28;20105;-50
2022/10/12 09:47:31;;;;;;;9.52;4.55;;;17.70;99.90;;;;;;5019044;22;20042;-48
2022/10/12 09:50:05;;;;;;;12.48;4.85;;;17.50;99.90;;;;;;4997342;28;20101;-47
2022/10/12 09:52:41;;;;;;;9.93;5.00;;;17.40;99.90;;;;;;4996604;28;20026;-50
2022/10/12 09:55:27;;;;;;;12.82;5.32;;;17.30;99.90;;;;;;4996413;28;20165;-50
2022/10/12 09:57:57;;;;;;;;;;;17.20;99.90;;;;;;4997718;28;20042;-47
2022/10/12 10:00:31;;;;;;;12.00;4.95;;;17.10;99.90;;;;;;4997473;28;19920;-51
2022/10/12 10:02:58;;;;;;;12.98;4.55;;;17.40;99.90;;;;;;4997844;28;20117;-49
2022/10/12 10:05:31;;;;;;;12.85;4.50;;;17.60;99.90;;;;;;4997709;28;20069;-49
2022/10/12 10:08:22;;;;;;;8.15;4.60;;;17.70;99.90;;;;;;4995700;28;20034;-48
2022/10/12 10:10:56;;;;;;;11.65;5.18;;;17.80;99.90;;;;;;4996097;28;20026;-53
2022/10/12 10:13:26;;;;;;;12.35;5.07;;;17.60;99.90;;;;;;4995332;28;20057;-52
2022/10/12 10:16:06;;;;;;;12.63;5.75;;;17.50;99.90;;;;;;4994413;28;20026;-50
2022/10/12 10:19:08;;;;;;;10.05;5.40;;;17.30;99.90;;;;;;4995713;28;20444;-52
2022/10/12 10:21:39;;;;;;;9.40;4.85;;;17.00;99.90;;;;;;4972798;28;20034;-49
2022/10/12 10:24:17;;;;;;;7.13;4.53;;;16.90;99.90;;;;;;4995101;28;20026;-49
2022/10/12 10:27:01;;;;;;;9.93;5.25;;;16.90;99.90;;;;;;4995364;28;20075;-50
2022/10/12 10:29:36;;;;;;;16.15;5.30;;;17.00;99.90;;;;;;4995538;28;20084;-48
2022/10/12 10:32:25;;;;;;;10.85;5.20;;;17.00;99.90;;;;;;4995002;28;20026;-51
2022/10/12 10:35:19;;;;;;;10.45;5.07;;;17.10;99.90;;;;;;4995147;28;20034;-52
2022/10/12 10:37:48;;;;;;;12.10;5.20;;;17.00;99.90;;;;;;4994943;28;20482;-49
2022/10/12 10:40:34;;;;;;;12.32;5.57;;;16.80;99.90;;;;;;4994928;28;20502;-52
2022/10/12 10:43:05;;;;;;;10.70;5.65;;;16.70;99.90;;;;;;4994525;28;20042;-53
2022/10/12 10:45:43;;;;;;;14.63;6.05;;;16.70;99.90;;;;;;4993991;28;20508;-52
2022/10/12 10:48:12;;;;;;;16.23;6.10;;;16.60;99.90;;;;;;4994532;28;20441;-51
2022/10/12 10:50:41;;;;;;;10.20;5.45;;;16.60;99.90;;;;;;4994915;28;20125;-52
2022/10/12 10:53:17;;;;;;;12.38;4.43;;;16.60;99.90;;;;;;4993756;28;20027;-52
2022/10/12 10:55:54;;;;;;;9.40;4.80;;;16.70;99.90;;;;;;4994590;28;20023;-48
2022/10/12 10:58:28;;;;;;;28.15;7.03;;;16.80;99.90;;;;;;4995090;28;20053;-52
2022/10/12 11:00:59;;;;;;;12.35;6.13;;;16.80;99.90;;;;;;4994835;28;20157;-49
2022/10/12 11:03:38;;;;;;;10.40;5.63;;;16.70;99.90;;;;;;4993414;28;20359;-51
2022/10/12 11:06:16;;;;;;;9.20;5.75;;;16.70;99.90;;;;;;4994375;28;20030;-50
2022/10/12 11:08:44;;;;;;;13.05;5.82;;;16.60;99.90;;;;;;4994393;28;20098;-51
2022/10/12 11:11:22;;;;;;;8.63;5.53;;;16.70;99.90;;;;;;4994616;28;20160;-50
2022/10/12 11:14:01;;;;;;;16.30;6.82;;;16.70;99.90;;;;;;4994185;28;20027;-48
2022/10/12 11:16:38;;;;;;;20.80;6.53;;;16.70;99.90;;;;;;4993129;28;20383;-52
2022/10/12 11:19:27;;;;;;;10.48;5.95;;;16.60;99.90;;;;;;4994714;28;20043;-52
2022/10/12 11:22:17;;;;;;;12.60;5.28;;;16.50;99.90;;;;;;4994068;28;20015;-47
2022/10/12 11:24:49;;;;;;;11.80;5.75;;;16.50;99.90;;;;;;4994450;28;20030;-49
2022/10/12 11:27:23;;;;;;;11.73;6.18;;;16.60;99.90;;;;;;4994279;28;20050;-52
2022/10/12 11:29:55;;;;;;;13.77;6.53;;;16.80;99.90;;;;;;4994266;28;20025;-49
2022/10/12 11:32:53;;;;;;;13.93;6.10;;;16.90;99.90;;;;;;4994380;28;20030;-55
2022/10/12 11:35:29;;;;;;;11.82;5.88;;;16.90;99.90;;;;;;4986992;28;20498;-50
2022/10/12 11:37:59;;;;;;;;;;;16.90;99.90;;;;;;4994775;28;20038;-54
2022/10/12 11:40:32;;;;;;;90.95;59.17;;;16.70;99.90;;;;;;4993814;28;19964;-50
2022/10/12 11:43:03;;;;;;;27.92;14.73;;;16.70;99.90;;;;;;4993822;28;20097;-49
2022/10/12 11:45:40;;;;;;;12.73;5.85;;;16.60;99.90;;;;;;4993519;28;20367;-51
2022/10/12 11:48:12;;;;;;;13.82;5.88;;;16.60;99.90;;;;;;5005413;28;20089;-50
2022/10/12 11:50:44;;;;;;;12.80;6.07;;;16.70;99.90;;;;;;5013671;28;20034;-48
2022/10/12 11:53:39;;;;;;;10.38;4.93;;;16.70;99.90;;;;;;5013476;28;20113;-50
2022/10/12 11:56:11;;;;;;;13.70;6.65;;;16.80;99.90;;;;;;5013297;28;20026;-53
2022/10/12 11:58:40;;;;;;;15.02;6.32;;;16.80;99.90;;;;;;5013160;28;20033;-49
2022/10/12 12:01:34;;;;;;;10.15;6.10;;;16.80;99.90;;;;;;5013275;28;20125;-53
2022/10/12 12:04:06;;;;;;;15.68;7.22;;;16.80;99.90;;;;;;5012715;28;20401;-54
2022/10/12 12:06:41;;;;;;;14.88;6.55;;;16.80;99.90;;;;;;5013235;28;20385;-52
2022/10/12 12:09:30;;;;;;;11.30;6.65;;;16.80;99.90;;;;;;5013261;28;20111;-50
2022/10/12 12:12:19;;;;;;;23.00;7.90;;;16.80;99.90;;;;;;5012997;28;20022;-54
2022/10/12 12:14:46;;;;;;;15.77;7.38;;;16.90;99.90;;;;;;5012835;28;20075;-49
2022/10/12 12:17:18;;;;;;;18.00;7.88;;;16.90;99.90;;;;;;5013138;28;20029;-53
2022/10/12 12:19:46;;;;;;;12.50;5.72;;;16.90;99.90;;;;;;5013058;28;20034;-51
2022/10/12 12:22:16;;;;;;;17.13;7.80;;;16.80;99.90;;;;;;5012659;28;20029;-53
2022/10/12 12:25:19;;;;;;;19.35;8.55;;;16.80;99.90;;;;;;5013532;28;20066;-50
2022/10/12 12:27:56;;;;;;;12.20;7.18;;;16.90;99.90;;;;;;4972180;28;20041;-50
2022/10/12 12:30:30;;;;;;;19.17;6.65;;;16.90;99.90;;;;;;5012800;28;20049;-50
2022/10/12 12:33:05;;;;;;;15.27;6.80;;;16.90;99.90;;;;;;5012652;28;20494;-47
2022/10/12 12:35:49;;;;;;;14.45;7.43;;;16.90;99.90;;;;;;5012400;28;20113;-50
2022/10/12 12:38:29;;;;;;;13.27;7.43;;;17.00;99.90;;;;;;4994996;28;20034;-53
2022/10/12 12:41:18;;;;;;;14.98;6.65;;;16.80;99.90;;;;;;4991981;28;20499;-51
2022/10/12 12:43:44;;;;;;;14.10;7.22;;;16.80;99.90;;;;;;4990782;28;20033;-54
2022/10/12 12:46:12;;;;;;;14.80;7.88;;;16.90;99.90;;;;;;4990969;28;20117;-50
2022/10/12 12:48:37;;;;;;;9.25;7.28;;;16.90;99.90;;;;;;4991772;28;20509;-53
2022/10/12 12:51:31;;;;;;;26.75;9.00;;;16.90;99.90;;;;;;4992058;28;20026;-54
2022/10/12 12:54:16;;;;;;;19.77;8.13;;;16.90;99.90;;;;;;4990154;28;20070;-53
2022/10/12 12:57:09;;;;;;;13.88;8.20;;;16.90;99.90;;;;;;4991200;28;20034;-56
2022/10/12 13:00:07;;;;;;;19.95;8.02;;;16.90;99.90;;;;;;4992278;28;20057;-51
2022/10/12 13:02:54;;;;;;;19.63;8.40;;;16.90;99.90;;;;;;4992204;28;20077;-54
2022/10/12 13:06:10;;;;;;;13.65;7.75;;;16.90;99.90;;;;;;4992577;28;20041;-55